Overview Statistics Trail Chart Weather Telemetry Raw packets
 

This is the latest recevied weather packets stored in our database for station/object KD4EG. If no packets are shown the sender has not sent any weather packets the latest 10 day(s).

<< 62 63 64 65 66 67 68 >>
Time Temp. Humidity Pressure Rain* Wind** Luminosity Snow
1788214509 30.56° C 61% 1021.3 hPa 0 mm - 127 W/m² -
1788214204 31.11° C 61% 1021.4 hPa 0 mm - 81 W/m² -
1788213900 31.11° C 61% 1021.2 hPa 0 mm - 143 W/m² -
1788213595 31.67° C 59% 1021.2 hPa 0 mm - 178 W/m² -
1788213290 31.67° C 59% 1021.4 hPa 0 mm - 206 W/m² -
1788212986 31.67° C 59% 1021.3 hPa 0 mm - 203 W/m² -
1788212684 31.67° C 58% 1021.3 hPa 0 mm - 101 W/m² -
1788212379 32.78° C 55% 1021.4 hPa 0 mm - 98 W/m² -
1788212076 33.33° C 51% 1021.4 hPa 0 mm - 257 W/m² -
1788211775 33.33° C 50% 1021.2 hPa 0 mm - 270 W/m² -
1788211472 33.33° C 50% 1021.2 hPa 0 mm - 326 W/m² -
1788211171 33.33° C 51% 1021.2 hPa 0 mm - 307 W/m² -
1788210867 32.78° C 51% 1021.1 hPa 0 mm - 218 W/m² -
1788210566 33.33° C 49% 1021.1 hPa 0 mm - 119 W/m² -
1788210261 33.33° C 46% 1021 hPa 0 mm - 154 W/m² -
1788209957 33.33° C 45% 1021 hPa 0 mm - 154 W/m² -
1788209652 33.33° C 46% 1021.1 hPa 0 mm - 119 W/m² -
1788209347 34.44° C 45% 1021.1 hPa 0 mm - 127 W/m² -
1788209046 34.44° C 45% 1021.3 hPa 0 mm - 401 W/m² -
1788208746 34.44° C 45% 1021.1 hPa 0 mm - 412 W/m² -
1788208441 33.89° C 46% 1021.2 hPa 0 mm - 271 W/m² -
1788208139 33.89° C 45% 1021.4 hPa 0 mm - 456 W/m² -
1788207834 33.33° C 45% 1021.5 hPa 0 mm - 441 W/m² -
1788207534 33.89° C 43% 1021.4 hPa 0 mm - 467 W/m² -
1788207233 35° C 41% 1021.1 hPa 0 mm - 474 W/m² -

* Rain latest hour (hover to see other rain measurements)
** Current wind speed in m/s (hover to see current wind gust speed)